2026/08/10

Sensor Date Temp./Hum.
h4-hermonville 10-08-2026 - 23:58 24.3°C / 50.5%
h2-hermonville 10-08-2026 - 23:54 25.9°C / 48%
h1-hermonville 10-08-2026 - 23:54 21.9°C / 59%
h3-hermonville 10-08-2026 - 23:50 23.3°C / 54%
h4-hermonville 10-08-2026 - 23:48 24.3°C / 50%
h2-hermonville 10-08-2026 - 23:44 26.1°C / 47.5%
h1-hermonville 10-08-2026 - 23:44 22.1°C / 58%
h3-hermonville 10-08-2026 - 23:40 23.5°C / 53%
h4-hermonville 10-08-2026 - 23:38 24.5°C / 50%
h2-hermonville 10-08-2026 - 23:34 26.3°C / 47%
h1-hermonville 10-08-2026 - 23:34 22.2°C / 57.5%
h3-hermonville 10-08-2026 - 23:30 23.8°C / 52.5%
h4-hermonville 10-08-2026 - 23:28 24.6°C / 49%
h2-hermonville 10-08-2026 - 23:24 26.4°C / 46.5%
h1-hermonville 10-08-2026 - 23:24 22.5°C / 56.5%
h3-hermonville 10-08-2026 - 23:20 24.1°C / 51.5%
h4-hermonville 10-08-2026 - 23:18 24.7°C / 49%
h2-hermonville 10-08-2026 - 23:14 26.6°C / 45.5%
h1-hermonville 10-08-2026 - 23:14 22.7°C / 55.5%
h3-hermonville 10-08-2026 - 23:10 24.3°C / 50.5%
h4-hermonville 10-08-2026 - 23:08 24.8°C / 48.5%
h1-hermonville 10-08-2026 - 23:04 23°C / 54.5%
h3-hermonville 10-08-2026 - 23:00 24.5°C / 50%
h4-hermonville 10-08-2026 - 22:58 25°C / 48%
h2-hermonville 10-08-2026 - 22:54 26.8°C / 45.5%
h3-hermonville 10-08-2026 - 22:50 24.8°C / 49%
h4-hermonville 10-08-2026 - 22:48 25°C / 47.5%
h2-hermonville 10-08-2026 - 22:44 26.9°C / 45%
h1-hermonville 10-08-2026 - 22:44 23.5°C / 53%
h3-hermonville 10-08-2026 - 22:40 25°C / 48.5%
h4-hermonville 10-08-2026 - 22:38 25.2°C / 47%
h2-hermonville 10-08-2026 - 22:34 26.8°C / 45%
h1-hermonville 10-08-2026 - 22:34 23.8°C / 52%
h3-hermonville 10-08-2026 - 22:30 25.2°C / 48%
h4-hermonville 10-08-2026 - 22:28 25.4°C / 47%
h2-hermonville 10-08-2026 - 22:24 26.9°C / 44.5%
h1-hermonville 10-08-2026 - 22:24 24°C / 51.5%
h3-hermonville 10-08-2026 - 22:20 25.5°C / 47%
h4-hermonville 10-08-2026 - 22:18 25.6°C / 46.5%
h2-hermonville 10-08-2026 - 22:14 27°C / 44.5%
h1-hermonville 10-08-2026 - 22:14 24.3°C / 50.5%
h3-hermonville 10-08-2026 - 22:10 25.8°C / 46.5%
h4-hermonville 10-08-2026 - 22:08 25.8°C / 46%
h2-hermonville 10-08-2026 - 22:04 27.1°C / 44.5%
h1-hermonville 10-08-2026 - 22:04 24.5°C / 50%
h3-hermonville 10-08-2026 - 22:00 26.1°C / 46%
h2-hermonville 10-08-2026 - 21:54 27°C / 44.5%
h1-hermonville 10-08-2026 - 21:54 24.8°C / 49.5%
h3-hermonville 10-08-2026 - 21:50 26.3°C / 45.5%
h1-hermonville 10-08-2026 - 21:44 25.3°C / 49%
h3-hermonville 10-08-2026 - 21:40 26.6°C / 45%
h4-hermonville 10-08-2026 - 21:38 26.5°C / 44.5%
h2-hermonville 10-08-2026 - 21:34 27.2°C / 43.5%
h1-hermonville 10-08-2026 - 21:34 25.6°C / 48%
h3-hermonville 10-08-2026 - 21:30 26.9°C / 44%
h2-hermonville 10-08-2026 - 21:24 27.2°C / 43%
h1-hermonville 10-08-2026 - 21:24 25.9°C / 46%
h3-hermonville 10-08-2026 - 21:20 27.2°C / 42.5%
h4-hermonville 10-08-2026 - 21:18 26.8°C / 42.5%
h2-hermonville 10-08-2026 - 21:14 27.4°C / 42%
h1-hermonville 10-08-2026 - 21:14 26.4°C / 43.5%
h3-hermonville 10-08-2026 - 21:10 27.5°C / 40.5%
h2-hermonville 10-08-2026 - 21:04 27.3°C / 41.5%
h1-hermonville 10-08-2026 - 21:04 26.8°C / 41.5%
h3-hermonville 10-08-2026 - 21:00 27.9°C / 39%
h2-hermonville 10-08-2026 - 20:54 27.4°C / 40.5%
h1-hermonville 10-08-2026 - 20:54 27.3°C / 40%
h3-hermonville 10-08-2026 - 20:50 28.2°C / 37.5%
h1-hermonville 10-08-2026 - 20:44 27.5°C / 38.5%
h3-hermonville 10-08-2026 - 20:40 28.5°C / 36.5%
h4-hermonville 10-08-2026 - 20:38 27.6°C / 38%
h2-hermonville 10-08-2026 - 20:34 27.7°C / 39.5%
h3-hermonville 10-08-2026 - 20:30 28.7°C / 36%
h4-hermonville 10-08-2026 - 20:28 27.9°C / 37.5%
h2-hermonville 10-08-2026 - 20:24 28.1°C / 39%
h1-hermonville 10-08-2026 - 20:24 28.1°C / 37%
h3-hermonville 10-08-2026 - 20:20 28.8°C / 36%
h4-hermonville 10-08-2026 - 20:18 28°C / 37.5%
h3-hermonville 10-08-2026 - 20:10 29°C / 36%
h1-hermonville 10-08-2026 - 20:04 28.6°C / 36.5%
h3-hermonville 10-08-2026 - 20:00 29.1°C / 35.5%
h2-hermonville 10-08-2026 - 19:54 30.4°C / 35%
h1-hermonville 10-08-2026 - 19:54 28.7°C / 36%
h3-hermonville 10-08-2026 - 19:50 29.1°C / 35.5%
h2-hermonville 10-08-2026 - 19:44 30.7°C / 34.5%
h1-hermonville 10-08-2026 - 19:44 28.9°C / 36%
h3-hermonville 10-08-2026 - 19:40 29.3°C / 35%
h1-hermonville 10-08-2026 - 19:34 28.8°C / 35.5%
h3-hermonville 10-08-2026 - 19:30 29.3°C / 35%
h2-hermonville 10-08-2026 - 19:24 31°C / 35%
h1-hermonville 10-08-2026 - 19:24 29°C / 36.5%
h3-hermonville 10-08-2026 - 19:20 29.3°C / 36.5%
h2-hermonville 10-08-2026 - 19:14 31.1°C / 35.5%
h1-hermonville 10-08-2026 - 19:14 29.1°C / 37.5%
h3-hermonville 10-08-2026 - 19:10 29.5°C / 36%
h4-hermonville 10-08-2026 - 19:08 28.6°C / 37.5%
h2-hermonville 10-08-2026 - 19:04 30.9°C / 35.5%
h1-hermonville 10-08-2026 - 19:04 29°C / 37.5%
h3-hermonville 10-08-2026 - 19:00 29.4°C / 36.5%
h2-hermonville 10-08-2026 - 18:54 31.9°C / 34%
h1-hermonville 10-08-2026 - 18:54 29.1°C / 37.5%
h3-hermonville 10-08-2026 - 18:50 29.5°C / 36.5%
h2-hermonville 10-08-2026 - 18:44 31.7°C / 33%
h1-hermonville 10-08-2026 - 18:44 29.2°C / 36.5%
h3-hermonville 10-08-2026 - 18:40 29.5°C / 35%
h4-hermonville 10-08-2026 - 18:38 28.9°C / 36%
h1-hermonville 10-08-2026 - 18:34 29.2°C / 36%
h3-hermonville 10-08-2026 - 18:30 29.6°C / 35%
h2-hermonville 10-08-2026 - 18:24 31.7°C / 33%
h1-hermonville 10-08-2026 - 18:24 29.3°C / 35.5%
h3-hermonville 10-08-2026 - 18:20 29.8°C / 34.5%
h2-hermonville 10-08-2026 - 18:14 31.5°C / 33.5%
h1-hermonville 10-08-2026 - 18:14 29.4°C / 35.5%
h3-hermonville 10-08-2026 - 18:10 30°C / 35%
h4-hermonville 10-08-2026 - 18:08 29°C / 36.5%
h1-hermonville 10-08-2026 - 18:04 29.3°C / 36.5%
h3-hermonville 10-08-2026 - 18:00 29.9°C / 35.5%
h4-hermonville 10-08-2026 - 17:58 29.1°C / 37%
h2-hermonville 10-08-2026 - 17:54 34°C / 30.5%
h1-hermonville 10-08-2026 - 17:54 29.5°C / 36.5%
h3-hermonville 10-08-2026 - 17:50 30.3°C / 35.5%
h2-hermonville 10-08-2026 - 17:44 32.3°C / 33%
h1-hermonville 10-08-2026 - 17:44 29.5°C / 36.5%
h3-hermonville 10-08-2026 - 17:40 29.9°C / 35%
h1-hermonville 10-08-2026 - 17:34 29.4°C / 36.5%
h3-hermonville 10-08-2026 - 17:30 29.8°C / 35%
h4-hermonville 10-08-2026 - 17:28 28.8°C / 36.5%
h1-hermonville 10-08-2026 - 17:24 29.4°C / 35.5%
h3-hermonville 10-08-2026 - 17:20 29.9°C / 35%
h4-hermonville 10-08-2026 - 17:18 28.9°C / 37%
h3-hermonville 10-08-2026 - 17:10 29.8°C / 35%
h4-hermonville 10-08-2026 - 17:08 28.8°C / 36%
h1-hermonville 10-08-2026 - 17:04 29.3°C / 36.5%
h3-hermonville 10-08-2026 - 17:00 30°C / 35%
h4-hermonville 10-08-2026 - 16:58 28.8°C / 36.5%
h1-hermonville 10-08-2026 - 16:54 29.2°C / 36%
h3-hermonville 10-08-2026 - 16:50 29.6°C / 35.5%
h4-hermonville 10-08-2026 - 16:48 28.8°C / 36.5%
h2-hermonville 10-08-2026 - 16:44 31.5°C / 34.5%
h3-hermonville 10-08-2026 - 16:40 30.1°C / 34.5%
h4-hermonville 10-08-2026 - 16:38 28.9°C / 36.5%
h2-hermonville 10-08-2026 - 16:34 29.9°C / 36.5%
h1-hermonville 10-08-2026 - 16:34 29.2°C / 36%
h3-hermonville 10-08-2026 - 16:30 29.8°C / 35%
h4-hermonville 10-08-2026 - 16:28 28.8°C / 36.5%
h2-hermonville 10-08-2026 - 16:24 29.6°C / 37.5%
h1-hermonville 10-08-2026 - 16:24 29.2°C / 36%
h3-hermonville 10-08-2026 - 16:20 30°C / 35%
h4-hermonville 10-08-2026 - 16:18 28.8°C / 37%
h2-hermonville 10-08-2026 - 16:14 29.2°C / 37.5%
h1-hermonville 10-08-2026 - 16:14 28.9°C / 37%
h3-hermonville 10-08-2026 - 16:10 29.7°C / 35%
h4-hermonville 10-08-2026 - 16:08 28.7°C / 36.5%
h1-hermonville 10-08-2026 - 16:04 28.8°C / 36.5%
h3-hermonville 10-08-2026 - 16:00 29.7°C / 35%
h4-hermonville 10-08-2026 - 15:58 28.4°C / 36.5%
h2-hermonville 10-08-2026 - 15:54 28.6°C / 38.5%
h1-hermonville 10-08-2026 - 15:54 28.9°C / 36%
h3-hermonville 10-08-2026 - 15:50 29.6°C / 35.5%
h4-hermonville 10-08-2026 - 15:48 28.6°C / 36.5%
h2-hermonville 10-08-2026 - 15:44 28.9°C / 38%
h1-hermonville 10-08-2026 - 15:44 28.5°C / 36.5%
h3-hermonville 10-08-2026 - 15:40 29.5°C / 35.5%
h2-hermonville 10-08-2026 - 15:34 28°C / 40%
h1-hermonville 10-08-2026 - 15:34 28.4°C / 37.5%
h3-hermonville 10-08-2026 - 15:30 29.8°C / 35%
h4-hermonville 10-08-2026 - 15:28 28.6°C / 36.5%
h2-hermonville 10-08-2026 - 15:24 27.1°C / 40.5%
h1-hermonville 10-08-2026 - 15:24 28.4°C / 37%
h3-hermonville 10-08-2026 - 15:20 29.4°C / 35%
h4-hermonville 10-08-2026 - 15:18 28.3°C / 36.5%
h2-hermonville 10-08-2026 - 15:14 27.6°C / 39.5%
h1-hermonville 10-08-2026 - 15:14 28.2°C / 37%
h3-hermonville 10-08-2026 - 15:10 29.7°C / 34.5%
h4-hermonville 10-08-2026 - 15:08 28.6°C / 36%
h1-hermonville 10-08-2026 - 15:04 28.2°C / 36.5%
h3-hermonville 10-08-2026 - 15:00 29.5°C / 34%
h4-hermonville 10-08-2026 - 14:58 28.4°C / 35.5%
h2-hermonville 10-08-2026 - 14:54 27°C / 40.5%
h1-hermonville 10-08-2026 - 14:54 28°C / 36.5%
h3-hermonville 10-08-2026 - 14:50 28.9°C / 35%
h4-hermonville 10-08-2026 - 14:48 28.5°C / 35.5%
h2-hermonville 10-08-2026 - 14:44 27.3°C / 39.5%
h1-hermonville 10-08-2026 - 14:44 27.8°C / 37%
h3-hermonville 10-08-2026 - 14:40 28.6°C / 36%
h4-hermonville 10-08-2026 - 14:38 28.4°C / 36.5%
h2-hermonville 10-08-2026 - 14:34 27.9°C / 38%
h1-hermonville 10-08-2026 - 14:34 27.4°C / 39%
h3-hermonville 10-08-2026 - 14:30 28.2°C / 37.5%
h4-hermonville 10-08-2026 - 14:28 28.3°C / 36.5%
h2-hermonville 10-08-2026 - 14:24 27.1°C / 41.5%
h1-hermonville 10-08-2026 - 14:24 27.6°C / 38.5%
h3-hermonville 10-08-2026 - 14:20 28.8°C / 36.5%
h2-hermonville 10-08-2026 - 14:14 27.9°C / 40.5%
h1-hermonville 10-08-2026 - 14:14 27.2°C / 40%
h3-hermonville 10-08-2026 - 14:10 28.4°C / 38%
h4-hermonville 10-08-2026 - 14:08 28.4°C / 37.5%
h2-hermonville 10-08-2026 - 14:04 27.9°C / 39.5%
h1-hermonville 10-08-2026 - 14:04 26.9°C / 41%
h3-hermonville 10-08-2026 - 14:00 28°C / 38.5%
h2-hermonville 10-08-2026 - 13:54 26.4°C / 42.5%
h1-hermonville 10-08-2026 - 13:54 27°C / 40.5%
h3-hermonville 10-08-2026 - 13:50 28°C / 38.5%
h2-hermonville 10-08-2026 - 13:44 26.8°C / 42.5%
h1-hermonville 10-08-2026 - 13:44 26.9°C / 41%
h3-hermonville 10-08-2026 - 13:40 27.7°C / 39.5%
h2-hermonville 10-08-2026 - 13:34 26.5°C / 43%
h1-hermonville 10-08-2026 - 13:34 26.9°C / 40.5%
h3-hermonville 10-08-2026 - 13:30 27.6°C / 38.5%
h4-hermonville 10-08-2026 - 13:28 28.7°C / 36%
h2-hermonville 10-08-2026 - 13:24 26.8°C / 41%
h1-hermonville 10-08-2026 - 13:24 26.4°C / 41%
h3-hermonville 10-08-2026 - 13:20 27.6°C / 38.5%
h4-hermonville 10-08-2026 - 13:18 28.9°C / 36%
h2-hermonville 10-08-2026 - 13:14 26.7°C / 42%
h1-hermonville 10-08-2026 - 13:14 26.3°C / 42%
h3-hermonville 10-08-2026 - 13:10 27.3°C / 39.5%
h4-hermonville 10-08-2026 - 13:08 29.4°C / 35%
h2-hermonville 10-08-2026 - 13:04 26.8°C / 41.5%
h1-hermonville 10-08-2026 - 13:04 26°C / 42.5%
h3-hermonville 10-08-2026 - 13:00 27°C / 40%
h1-hermonville 10-08-2026 - 12:54 25.8°C / 42.5%
h3-hermonville 10-08-2026 - 12:50 26.9°C / 40%
h1-hermonville 10-08-2026 - 12:44 25.8°C / 42%
h3-hermonville 10-08-2026 - 12:40 26.8°C / 40%
h4-hermonville 10-08-2026 - 12:38 29.7°C / 35%
h3-hermonville 10-08-2026 - 12:30 26.6°C / 40.5%
h2-hermonville 10-08-2026 - 12:24 25.7°C / 44%
h1-hermonville 10-08-2026 - 12:24 25.6°C / 43%
h3-hermonville 10-08-2026 - 12:20 26.2°C / 41%
h4-hermonville 10-08-2026 - 12:18 30.7°C / 33%
h2-hermonville 10-08-2026 - 12:14 25.6°C / 44.5%
h1-hermonville 10-08-2026 - 12:14 25.3°C / 44.5%
h4-hermonville 10-08-2026 - 12:08 32.3°C / 31%
h2-hermonville 10-08-2026 - 12:04 25.1°C / 45.5%
h1-hermonville 10-08-2026 - 12:04 25.3°C / 44.5%
h3-hermonville 10-08-2026 - 12:00 25.9°C / 43.5%
h4-hermonville 10-08-2026 - 11:58 34.5°C / 28.5%
h1-hermonville 10-08-2026 - 11:54 25.3°C / 45%
h3-hermonville 10-08-2026 - 11:50 25.8°C / 43%
h4-hermonville 10-08-2026 - 11:48 34.7°C / 28%
h2-hermonville 10-08-2026 - 11:44 24.5°C / 48%
h1-hermonville 10-08-2026 - 11:44 25.1°C / 45%
h3-hermonville 10-08-2026 - 11:40 25.7°C / 44.5%
h4-hermonville 10-08-2026 - 11:38 35.3°C / 28.5%
h2-hermonville 10-08-2026 - 11:34 24.3°C / 49%
h1-hermonville 10-08-2026 - 11:34 24.8°C / 46.5%
h3-hermonville 10-08-2026 - 11:30 25.4°C / 45.5%
h4-hermonville 10-08-2026 - 11:28 35°C / 29%
h2-hermonville 10-08-2026 - 11:24 24.1°C / 49%
h1-hermonville 10-08-2026 - 11:24 24.8°C / 47.5%
h4-hermonville 10-08-2026 - 11:18 35.4°C / 27.5%
h2-hermonville 10-08-2026 - 11:14 24.1°C / 49%
h3-hermonville 10-08-2026 - 11:10 24.7°C / 47%
h4-hermonville 10-08-2026 - 11:08 35.9°C / 27.5%
h2-hermonville 10-08-2026 - 11:04 24°C / 48.5%
h1-hermonville 10-08-2026 - 11:04 24.3°C / 47.5%
h3-hermonville 10-08-2026 - 11:00 24.4°C / 47%
h4-hermonville 10-08-2026 - 10:58 35.1°C / 28%
h2-hermonville 10-08-2026 - 10:54 23.8°C / 48%
h1-hermonville 10-08-2026 - 10:54 24°C / 47.5%
h3-hermonville 10-08-2026 - 10:50 24.1°C / 47%
h4-hermonville 10-08-2026 - 10:48 35.7°C / 27%
h2-hermonville 10-08-2026 - 10:44 23.6°C / 50%
h1-hermonville 10-08-2026 - 10:44 24°C / 48.5%
h3-hermonville 10-08-2026 - 10:40 23.9°C / 48%
h4-hermonville 10-08-2026 - 10:38 35.6°C / 28%
h2-hermonville 10-08-2026 - 10:34 23.5°C / 50%
h1-hermonville 10-08-2026 - 10:34 23.4°C / 50%
h3-hermonville 10-08-2026 - 10:30 23.8°C / 49%
h4-hermonville 10-08-2026 - 10:28 34.6°C / 29%
h2-hermonville 10-08-2026 - 10:24 23.4°C / 50%
h1-hermonville 10-08-2026 - 10:24 23.1°C / 50.5%
h3-hermonville 10-08-2026 - 10:20 23.4°C / 49.5%
h4-hermonville 10-08-2026 - 10:18 34.5°C / 29%
h2-hermonville 10-08-2026 - 10:14 23.2°C / 50.5%
h1-hermonville 10-08-2026 - 10:14 23°C / 50.5%
h3-hermonville 10-08-2026 - 10:10 23.3°C / 49%
h4-hermonville 10-08-2026 - 10:08 34°C / 30%
h2-hermonville 10-08-2026 - 10:04 23.2°C / 50%
h1-hermonville 10-08-2026 - 10:04 22.9°C / 50.5%
h3-hermonville 10-08-2026 - 10:00 23°C / 50%
h4-hermonville 10-08-2026 - 09:58 33.5°C / 30%
h2-hermonville 10-08-2026 - 09:54 22.8°C / 50%
h1-hermonville 10-08-2026 - 09:54 22.9°C / 50%
h3-hermonville 10-08-2026 - 09:50 22.7°C / 49%
h4-hermonville 10-08-2026 - 09:48 33.5°C / 29%
h2-hermonville 10-08-2026 - 09:44 22.6°C / 50.5%
h3-hermonville 10-08-2026 - 09:40 22.5°C / 49%
h4-hermonville 10-08-2026 - 09:38 33.8°C / 29%
h2-hermonville 10-08-2026 - 09:34 22.1°C / 52.5%
h1-hermonville 10-08-2026 - 09:34 22.5°C / 51.5%
h3-hermonville 10-08-2026 - 09:30 22.2°C / 52%
h4-hermonville 10-08-2026 - 09:28 33.1°C / 31%
h2-hermonville 10-08-2026 - 09:24 21.8°C / 54%
h1-hermonville 10-08-2026 - 09:24 22.2°C / 52.5%
h3-hermonville 10-08-2026 - 09:20 21.9°C / 53%
h4-hermonville 10-08-2026 - 09:18 32.4°C / 32.5%
h2-hermonville 10-08-2026 - 09:14 21.7°C / 54%
h1-hermonville 10-08-2026 - 09:14 22°C / 53.5%
h3-hermonville 10-08-2026 - 09:10 21.8°C / 53.5%
h4-hermonville 10-08-2026 - 09:08 32.4°C / 32.5%
h2-hermonville 10-08-2026 - 09:04 21.4°C / 54.5%
h1-hermonville 10-08-2026 - 09:04 21.9°C / 53.5%
h3-hermonville 10-08-2026 - 09:00 21.8°C / 54%
h4-hermonville 10-08-2026 - 08:58 30.9°C / 35%
h2-hermonville 10-08-2026 - 08:54 21.4°C / 55.5%
h1-hermonville 10-08-2026 - 08:54 21.7°C / 54.5%
h3-hermonville 10-08-2026 - 08:50 21.6°C / 53.5%
h4-hermonville 10-08-2026 - 08:48 29.9°C / 35.5%
h2-hermonville 10-08-2026 - 08:44 21.4°C / 54%
h1-hermonville 10-08-2026 - 08:44 21.6°C / 53.5%
h3-hermonville 10-08-2026 - 08:40 21.5°C / 53%
h4-hermonville 10-08-2026 - 08:38 28.7°C / 38%
h2-hermonville 10-08-2026 - 08:34 21.5°C / 53.5%
h1-hermonville 10-08-2026 - 08:34 21.3°C / 54%
h3-hermonville 10-08-2026 - 08:30 21.3°C / 54%
h4-hermonville 10-08-2026 - 08:28 25.9°C / 44%
h2-hermonville 10-08-2026 - 08:24 21.2°C / 54.5%
h1-hermonville 10-08-2026 - 08:24 21.1°C / 54.5%
h3-hermonville 10-08-2026 - 08:20 20.9°C / 55%
h4-hermonville 10-08-2026 - 08:18 23.9°C / 47%
h2-hermonville 10-08-2026 - 08:14 20.8°C / 55.5%
h1-hermonville 10-08-2026 - 08:14 21.1°C / 55%
h3-hermonville 10-08-2026 - 08:10 20.7°C / 56%
h4-hermonville 10-08-2026 - 08:08 23.1°C / 49%
h1-hermonville 10-08-2026 - 08:04 20.9°C / 56%
h3-hermonville 10-08-2026 - 08:00 20.2°C / 57%
h4-hermonville 10-08-2026 - 07:58 22.2°C / 50.5%
h2-hermonville 10-08-2026 - 07:54 20.3°C / 57.5%
h1-hermonville 10-08-2026 - 07:54 20.8°C / 55.5%
h3-hermonville 10-08-2026 - 07:50 19.7°C / 59%
h4-hermonville 10-08-2026 - 07:48 21.9°C / 52%
h2-hermonville 10-08-2026 - 07:44 20.2°C / 59%
h1-hermonville 10-08-2026 - 07:44 20.7°C / 57%
h4-hermonville 10-08-2026 - 07:38 21.8°C / 51.5%
h2-hermonville 10-08-2026 - 07:34 20.2°C / 56.5%
h1-hermonville 10-08-2026 - 07:34 20.5°C / 55.5%
h3-hermonville 10-08-2026 - 07:30 19.9°C / 57%
h4-hermonville 10-08-2026 - 07:28 21.4°C / 51.5%
h2-hermonville 10-08-2026 - 07:24 20.3°C / 55.5%
h1-hermonville 10-08-2026 - 07:24 20.1°C / 56.5%
h3-hermonville 10-08-2026 - 07:20 19.8°C / 56%
h4-hermonville 10-08-2026 - 07:18 21°C / 52%
h2-hermonville 10-08-2026 - 07:14 20.2°C / 55%
h1-hermonville 10-08-2026 - 07:14 20.3°C / 55%
h3-hermonville 10-08-2026 - 07:10 19.6°C / 56.5%
h4-hermonville 10-08-2026 - 07:08 21.1°C / 52%
h1-hermonville 10-08-2026 - 07:04 20.2°C / 55%
h4-hermonville 10-08-2026 - 06:58 20.4°C / 53.5%
h2-hermonville 10-08-2026 - 06:54 20.3°C / 55%
h1-hermonville 10-08-2026 - 06:54 20.1°C / 55.5%
h3-hermonville 10-08-2026 - 06:50 19.3°C / 56.5%
h4-hermonville 10-08-2026 - 06:48 20.7°C / 52.5%
h2-hermonville 10-08-2026 - 06:44 19.9°C / 56%
h1-hermonville 10-08-2026 - 06:44 20°C / 55.5%
h3-hermonville 10-08-2026 - 06:40 19.3°C / 57%
h4-hermonville 10-08-2026 - 06:38 21.2°C / 51.5%
h2-hermonville 10-08-2026 - 06:34 20°C / 56%
h1-hermonville 10-08-2026 - 06:34 20°C / 56%
h3-hermonville 10-08-2026 - 06:30 19.7°C / 56.5%
h4-hermonville 10-08-2026 - 06:28 21.2°C / 51.5%
h1-hermonville 10-08-2026 - 06:24 20°C / 57%
h3-hermonville 10-08-2026 - 06:20 19.9°C / 57%
h4-hermonville 10-08-2026 - 06:18 21.5°C / 52%
h2-hermonville 10-08-2026 - 06:14 20.5°C / 56%
h1-hermonville 10-08-2026 - 06:14 19.9°C / 57.5%
h3-hermonville 10-08-2026 - 06:10 20.5°C / 55%
h4-hermonville 10-08-2026 - 06:08 21.5°C / 51.5%
h2-hermonville 10-08-2026 - 06:04 20.6°C / 55.5%
h1-hermonville 10-08-2026 - 06:04 20.2°C / 56.5%
h3-hermonville 10-08-2026 - 06:00 20.1°C / 55.5%
h4-hermonville 10-08-2026 - 05:58 21.6°C / 51.5%
h2-hermonville 10-08-2026 - 05:54 20.5°C / 55.5%
h1-hermonville 10-08-2026 - 05:54 20.6°C / 55.5%
h3-hermonville 10-08-2026 - 05:50 20°C / 56%
h4-hermonville 10-08-2026 - 05:48 21.6°C / 51.5%
h2-hermonville 10-08-2026 - 05:44 20.4°C / 55.5%
h1-hermonville 10-08-2026 - 05:44 20.6°C / 55.5%
h3-hermonville 10-08-2026 - 05:40 20.2°C / 56%
h4-hermonville 10-08-2026 - 05:38 21.8°C / 51.5%
h2-hermonville 10-08-2026 - 05:34 20.4°C / 57%
h1-hermonville 10-08-2026 - 05:34 20.4°C / 57%
h3-hermonville 10-08-2026 - 05:30 20.9°C / 55%
h4-hermonville 10-08-2026 - 05:28 21.8°C / 52.5%
h2-hermonville 10-08-2026 - 05:24 21.2°C / 55.5%
h3-hermonville 10-08-2026 - 05:20 21.5°C / 54%
h4-hermonville 10-08-2026 - 05:18 21.9°C / 51.5%
h2-hermonville 10-08-2026 - 05:14 21.3°C / 55%
h1-hermonville 10-08-2026 - 05:14 21°C / 55.5%
h3-hermonville 10-08-2026 - 05:10 21.3°C / 55%
h4-hermonville 10-08-2026 - 05:08 22.1°C / 52%
h2-hermonville 10-08-2026 - 05:04 20.9°C / 56.5%
h1-hermonville 10-08-2026 - 05:04 21.2°C / 56%
h3-hermonville 10-08-2026 - 05:00 20.9°C / 56.5%
h4-hermonville 10-08-2026 - 04:58 22.1°C / 52%
h2-hermonville 10-08-2026 - 04:54 21°C / 57%
h1-hermonville 10-08-2026 - 04:54 21.3°C / 56%
h3-hermonville 10-08-2026 - 04:50 21.8°C / 54.5%
h4-hermonville 10-08-2026 - 04:48 22.2°C / 52.5%
h2-hermonville 10-08-2026 - 04:44 21.2°C / 56.5%
h1-hermonville 10-08-2026 - 04:44 21.3°C / 56%
h3-hermonville 10-08-2026 - 04:40 21.8°C / 54%
h4-hermonville 10-08-2026 - 04:38 22.1°C / 52%
h2-hermonville 10-08-2026 - 04:34 20.9°C / 57%
h1-hermonville 10-08-2026 - 04:34 21.4°C / 56%
h3-hermonville 10-08-2026 - 04:30 21.3°C / 56.5%
h4-hermonville 10-08-2026 - 04:28 22.3°C / 52.5%
h2-hermonville 10-08-2026 - 04:24 20.8°C / 58%
h1-hermonville 10-08-2026 - 04:24 21.1°C / 56.5%
h3-hermonville 10-08-2026 - 04:20 20.7°C / 58%
h4-hermonville 10-08-2026 - 04:18 22.3°C / 52.5%
h2-hermonville 10-08-2026 - 04:14 21.1°C / 57.5%
h1-hermonville 10-08-2026 - 04:14 21.3°C / 57%
h3-hermonville 10-08-2026 - 04:10 20.9°C / 57%
h4-hermonville 10-08-2026 - 04:08 22.6°C / 52%
h2-hermonville 10-08-2026 - 04:04 21.5°C / 56.5%
h1-hermonville 10-08-2026 - 04:04 21.4°C / 56.5%
h3-hermonville 10-08-2026 - 04:00 21.7°C / 55%
h4-hermonville 10-08-2026 - 03:58 22.7°C / 52%
h2-hermonville 10-08-2026 - 03:54 21.9°C / 55%
h1-hermonville 10-08-2026 - 03:54 21.4°C / 56%
h3-hermonville 10-08-2026 - 03:50 22°C / 54%
h4-hermonville 10-08-2026 - 03:48 22.9°C / 51%
h2-hermonville 10-08-2026 - 03:44 22.7°C / 52.5%
h1-hermonville 10-08-2026 - 03:44 21.6°C / 55.5%
h3-hermonville 10-08-2026 - 03:40 22.4°C / 52.5%
h4-hermonville 10-08-2026 - 03:38 23.1°C / 50%
h2-hermonville 10-08-2026 - 03:34 23.5°C / 50.5%
h1-hermonville 10-08-2026 - 03:34 21.6°C / 54.5%
h3-hermonville 10-08-2026 - 03:30 22.5°C / 52%
h4-hermonville 10-08-2026 - 03:28 23°C / 50%
h2-hermonville 10-08-2026 - 03:24 23.6°C / 50%
h1-hermonville 10-08-2026 - 03:24 22°C / 54%
h3-hermonville 10-08-2026 - 03:20 22.7°C / 51.5%
h4-hermonville 10-08-2026 - 03:18 23.1°C / 50%
h2-hermonville 10-08-2026 - 03:14 23.2°C / 51%
h1-hermonville 10-08-2026 - 03:14 21.8°C / 54.5%
h3-hermonville 10-08-2026 - 03:10 22.8°C / 51.5%
h4-hermonville 10-08-2026 - 03:08 23.1°C / 50.5%
h2-hermonville 10-08-2026 - 03:04 22.8°C / 52%
h1-hermonville 10-08-2026 - 03:04 22.2°C / 54%
h3-hermonville 10-08-2026 - 03:00 22.9°C / 51.5%
h4-hermonville 10-08-2026 - 02:58 23.2°C / 50%
h2-hermonville 10-08-2026 - 02:54 23.6°C / 50%
h1-hermonville 10-08-2026 - 02:54 22.1°C / 53.5%
h3-hermonville 10-08-2026 - 02:50 23.1°C / 50.5%
h4-hermonville 10-08-2026 - 02:48 23.2°C / 50%
h2-hermonville 10-08-2026 - 02:44 23.4°C / 51%
h1-hermonville 10-08-2026 - 02:44 22.6°C / 53.5%
h3-hermonville 10-08-2026 - 02:40 23.3°C / 50.5%
h4-hermonville 10-08-2026 - 02:38 23.3°C / 50%
h2-hermonville 10-08-2026 - 02:34 23.7°C / 50%
h1-hermonville 10-08-2026 - 02:34 22.7°C / 52.5%
h3-hermonville 10-08-2026 - 02:30 23.4°C / 50%
h4-hermonville 10-08-2026 - 02:28 23.6°C / 49%
h2-hermonville 10-08-2026 - 02:24 24.2°C / 48.5%
h1-hermonville 10-08-2026 - 02:24 23°C / 51.5%
h4-hermonville 10-08-2026 - 02:18 23.7°C / 48%
h2-hermonville 10-08-2026 - 02:14 24.5°C / 48%
h1-hermonville 10-08-2026 - 02:14 23.3°C / 50.5%
h4-hermonville 10-08-2026 - 02:08 23.7°C / 48.5%
h1-hermonville 10-08-2026 - 02:04 23.2°C / 50.5%
h3-hermonville 10-08-2026 - 02:00 23.7°C / 49%
h4-hermonville 10-08-2026 - 01:58 23.6°C / 48.5%
h1-hermonville 10-08-2026 - 01:54 23.3°C / 51%
h3-hermonville 10-08-2026 - 01:50 23.6°C / 49.5%
h4-hermonville 10-08-2026 - 01:48 23.7°C / 49%
h2-hermonville 10-08-2026 - 01:44 23.8°C / 49.5%
h1-hermonville 10-08-2026 - 01:44 23.2°C / 51.5%
h3-hermonville 10-08-2026 - 01:40 23.4°C / 50%
h4-hermonville 10-08-2026 - 01:38 23.6°C / 49%
h1-hermonville 10-08-2026 - 01:34 23.1°C / 51.5%
h3-hermonville 10-08-2026 - 01:30 23.1°C / 51%
h4-hermonville 10-08-2026 - 01:28 23.7°C / 49%
h2-hermonville 10-08-2026 - 01:24 23.4°C / 51%
h1-hermonville 10-08-2026 - 01:24 23.2°C / 51.5%
h3-hermonville 10-08-2026 - 01:20 23.6°C / 50%
h4-hermonville 10-08-2026 - 01:18 23.8°C / 48.5%
h1-hermonville 10-08-2026 - 01:14 23.4°C / 50.5%
h3-hermonville 10-08-2026 - 01:10 23.8°C / 49%
h4-hermonville 10-08-2026 - 01:08 23.8°C / 48.5%
h2-hermonville 10-08-2026 - 01:04 24°C / 48.5%
h1-hermonville 10-08-2026 - 01:04 23.4°C / 50%
h3-hermonville 10-08-2026 - 01:00 23.9°C / 48.5%
h4-hermonville 10-08-2026 - 00:58 23.7°C / 48%
h1-hermonville 10-08-2026 - 00:54 23.2°C / 51%
h3-hermonville 10-08-2026 - 00:50 23.9°C / 48%
h4-hermonville 10-08-2026 - 00:48 23.9°C / 47.5%
h2-hermonville 10-08-2026 - 00:44 22.9°C / 51.5%
h1-hermonville 10-08-2026 - 00:44 23.1°C / 51%
h3-hermonville 10-08-2026 - 00:40 23.6°C / 49%
h4-hermonville 10-08-2026 - 00:38 23.9°C / 47.5%
h2-hermonville 10-08-2026 - 00:34 22.8°C / 53%
h1-hermonville 10-08-2026 - 00:34 23.2°C / 52%
h3-hermonville 10-08-2026 - 00:30 23.8°C / 49.5%
h4-hermonville 10-08-2026 - 00:28 23.9°C / 48%
h2-hermonville 10-08-2026 - 00:24 23.2°C / 51.5%
h1-hermonville 10-08-2026 - 00:24 23.1°C / 51%
h3-hermonville 10-08-2026 - 00:20 23.7°C / 49.5%
h4-hermonville 10-08-2026 - 00:18 23.9°C / 49%
h2-hermonville 10-08-2026 - 00:14 23.5°C / 52%
h1-hermonville 10-08-2026 - 00:14 23.3°C / 51.5%
h3-hermonville 10-08-2026 - 00:10 23.7°C / 48%
h4-hermonville 10-08-2026 - 00:08 24°C / 48%
h2-hermonville 10-08-2026 - 00:04 23.1°C / 52.5%
h1-hermonville 10-08-2026 - 00:04 23.2°C / 51.5%
h3-hermonville 10-08-2026 - 00:00 23.8°C / 50%